Time;durP1;ratioP1;P1;durP2;ratioP2;P2;SDS_P1;SDS_P2;PMS_P1;PMS_P2;Temp;Humidity;BMP_temperature;BMP_pressure;BME280_temperature;BME280_humidity;BME280_pressure;Samples;Min_cycle;Max_cycle;Signal;HPM_P1;HPM_P2
2023/03/07 00:03:01;;;;;;;34.47;14.95;;;;;;;3.98;88.73;98552.00;12210147;19;20014;-81
2023/03/07 00:07:02;;;;;;;29.73;13.85;;;;;;;3.95;88.52;98549.75;12209932;19;20026;-81
2023/03/07 00:11:07;;;;;;;27.75;12.57;;;;;;;3.93;88.26;98552.75;12190107;19;20017;-80
2023/03/07 00:15:09;;;;;;;25.02;11.68;;;;;;;3.92;88.34;98553.78;12213191;19;20524;-80
2023/03/07 00:19:11;;;;;;;27.73;13.10;;;;;;;3.93;88.29;98539.13;12213282;19;20047;-80
2023/03/07 00:23:12;;;;;;;26.70;12.82;;;;;;;3.92;88.93;98533.88;12188269;19;20467;-80
2023/03/07 00:27:14;;;;;;;33.28;13.20;;;;;;;3.89;89.72;98530.56;12212824;19;20022;-80
2023/03/07 00:31:16;;;;;;;30.65;13.30;;;;;;;3.91;91.07;98529.50;12190562;19;20006;-81
2023/03/07 00:35:18;;;;;;;31.83;14.32;;;;;;;3.80;93.56;98526.53;12216691;19;20006;-81
2023/03/07 00:39:20;;;;;;;29.05;12.88;;;;;;;3.67;96.43;98517.78;12209346;19;19999;-80
2023/03/07 00:43:22;;;;;;;33.97;12.93;;;;;;;3.52;100.00;98515.53;12186006;19;20392;-79
2023/03/07 00:47:23;;;;;;;36.97;14.88;;;;;;;3.41;100.00;98507.09;12210656;19;20019;-80
2023/03/07 00:51:25;;;;;;;31.90;13.40;;;;;;;3.33;100.00;98507.47;12212531;19;20006;-80
2023/03/07 00:55:27;;;;;;;28.25;13.35;;;;;;;3.25;100.00;98502.38;12189433;19;20345;-79
2023/03/07 00:59:28;;;;;;;32.60;14.18;;;;;;;3.09;100.00;98497.59;12206832;19;20023;-79
2023/03/07 01:03:31;;;;;;;33.15;13.50;;;;;;;3.04;100.00;98492.84;12200021;19;20018;-78
2023/03/07 01:07:33;;;;;;;37.03;14.70;;;;;;;3.04;100.00;98487.41;12185964;19;20373;-79
2023/03/07 01:11:36;;;;;;;34.45;14.10;;;;;;;2.97;100.00;98479.38;12207713;19;20017;-79
2023/03/07 01:15:38;;;;;;;34.28;14.65;;;;;;;2.88;100.00;98475.28;12201385;19;20495;-79
2023/03/07 01:19:40;;;;;;;36.50;15.32;;;;;;;2.86;100.00;98474.72;12183304;19;20014;-79
2023/03/07 01:23:41;;;;;;;34.25;14.07;;;;;;;2.81;100.00;98468.31;12199066;19;20034;-79
2023/03/07 01:27:44;;;;;;;37.25;15.23;;;;;;;2.73;100.00;98475.72;12202085;19;20014;-79
2023/03/07 01:31:46;;;;;;;37.67;14.80;;;;;;;2.60;100.00;98462.34;12183349;19;20313;-79
2023/03/07 01:35:48;;;;;;;33.80;13.93;;;;;;;2.56;100.00;98463.88;12203897;19;20006;-79
2023/03/07 01:39:51;;;;;;;36.33;14.10;;;;;;;2.54;100.00;98460.53;12202646;19;20607;-79
2023/03/07 01:43:54;;;;;;;34.42;14.98;;;;;;;2.52;100.00;98451.78;12177418;19;20077;-78
2023/03/07 01:47:55;;;;;;;35.83;13.87;;;;;;;2.47;100.00;98438.88;12204538;19;20007;-78
2023/03/07 01:52:04;;;;;;;37.13;14.93;;;;;;;2.53;100.00;98447.16;12203529;19;20010;-78
2023/03/07 01:56:08;;;;;;;42.38;14.95;;;;;;;2.58;100.00;98447.31;12180056;19;20085;-78
2023/03/07 02:00:17;;;;;;;35.75;14.52;;;;;;;2.63;100.00;98442.00;12199327;19;20006;-78
2023/03/07 02:04:28;;;;;;;36.83;14.50;;;;;;;2.62;100.00;98432.19;12176561;19;20028;-78
2023/03/07 03:15:43;;;;;;;24.60;11.68;;;;;;;3.21;100.00;98370.50;12207161;19;20025;-77
2023/03/07 03:19:46;;;;;;;26.07;11.87;;;;;;;3.33;100.00;98362.31;12186973;19;20010;-76
2023/03/07 03:23:47;;;;;;;19.67;10.63;;;;;;;3.38;100.00;98365.16;12201561;19;20032;-77
2023/03/07 03:27:49;;;;;;;22.27;10.48;;;;;;;3.42;100.00;98363.59;12179682;19;20022;-77
2023/03/07 03:31:51;;;;;;;23.25;10.15;;;;;;;3.50;100.00;98370.59;12173411;19;20010;-79
2023/03/07 03:35:56;;;;;;;21.75;9.93;;;;;;;3.50;100.00;98360.53;12198557;19;20007;-78
2023/03/07 03:39:57;;;;;;;21.50;10.13;;;;;;;3.54;100.00;98364.44;12199843;19;19998;-78
2023/03/07 03:43:59;;;;;;;18.92;9.23;;;;;;;3.58;100.00;98345.72;12170884;19;20160;-77
2023/03/07 03:48:06;;;;;;;24.45;10.85;;;;;;;3.54;100.00;98352.69;12197727;19;20056;-77
2023/03/07 03:52:08;;;;;;;24.08;9.60;;;;;;;3.61;100.00;98346.06;12198605;19;20087;-78
2023/03/07 03:56:15;;;;;;;22.27;10.52;;;;;;;3.65;100.00;98341.78;12175220;19;20026;-78
2023/03/07 04:00:18;;;;;;;21.08;9.68;;;;;;;3.57;100.00;98335.88;12199783;19;20022;-78
2023/03/07 04:04:22;;;;;;;20.77;9.50;;;;;;;3.68;100.00;98337.75;12178363;19;20017;-78
2023/03/07 04:08:23;;;;;;;23.20;9.80;;;;;;;3.71;100.00;98339.16;12235618;19;20022;-77
2023/03/07 04:12:25;;;;;;;20.70;10.45;;;;;;;3.76;100.00;98331.09;12260533;19;19999;-79
2023/03/07 04:16:27;;;;;;;21.50;10.73;;;;;;;3.79;100.00;98333.34;12238950;19;20013;-79
2023/03/07 04:20:29;;;;;;;24.55;11.35;;;;;;;3.77;100.00;98327.28;12208640;19;20006;-78
2023/03/07 04:24:30;;;;;;;25.98;10.57;;;;;;;3.75;100.00;98318.53;12196235;19;20010;-78
2023/03/07 04:28:44;;;;;;;23.63;10.65;;;;;;;3.71;100.00;98310.00;12177147;19;20010;-78
2023/03/07 04:32:50;;;;;;;24.67;10.15;;;;;;;3.74;100.00;98312.25;12195767;19;20774;-78
2023/03/07 04:36:52;;;;;;;24.98;11.77;;;;;;;3.74;100.00;98306.81;12198034;19;20089;-78
2023/03/07 04:40:54;;;;;;;26.88;11.65;;;;;;;3.76;100.00;98301.13;12176869;19;20007;-78
2023/03/07 04:44:55;;;;;;;29.70;11.90;;;;;;;3.65;100.00;98298.19;12200138;19;20006;-81
2023/03/07 04:48:58;;;;;;;;;;;;;;;3.60;100.00;98300.00;12201847;19;20006;-78
2023/03/07 04:53:00;;;;;;;24.25;10.27;;;;;;;3.57;100.00;98304.03;12177011;19;19927;-77
2023/03/07 04:57:02;;;;;;;28.17;12.37;;;;;;;3.55;100.00;98289.81;12199771;19;20384;-78
2023/03/07 05:01:05;;;;;;;26.97;12.47;;;;;;;3.52;100.00;98294.94;12200666;19;20025;-78
2023/03/07 05:05:06;;;;;;;25.13;12.07;;;;;;;3.49;100.00;98287.25;12177668;19;20121;-79
2023/03/07 05:09:09;;;;;;;26.55;10.95;;;;;;;3.43;100.00;98283.59;12200856;19;20007;-79
2023/03/07 05:13:11;;;;;;;27.20;12.70;;;;;;;3.46;100.00;98282.28;12200562;19;20084;-79
2023/03/07 05:17:14;;;;;;;24.13;11.15;;;;;;;3.42;100.00;98281.91;12179544;19;19999;-78
2023/03/07 05:21:16;;;;;;;24.65;11.38;;;;;;;3.42;100.00;98281.91;12203526;19;21260;-78
2023/03/07 05:25:18;;;;;;;25.70;11.90;;;;;;;3.41;100.00;98274.81;12222852;19;20048;-79
2023/03/07 05:29:20;;;;;;;24.55;11.57;;;;;;;3.40;100.00;98270.47;12246506;19;20010;-78
2023/03/07 05:33:22;;;;;;;25.50;12.27;;;;;;;3.35;100.00;98268.44;12247231;19;20022;-78
2023/03/07 05:37:24;;;;;;;25.42;11.20;;;;;;;3.35;100.00;98265.72;12220456;19;20006;-77
2023/03/07 05:41:25;;;;;;;30.85;12.25;;;;;;;3.41;100.00;98263.94;12241835;19;20010;-78
2023/03/07 05:45:28;;;;;;;29.23;12.30;;;;;;;3.39;100.00;98256.03;12235755;19;20003;-78
2023/03/07 05:49:30;;;;;;;26.57;13.00;;;;;;;3.41;100.00;98253.84;12215855;19;20011;-78
2023/03/07 05:53:32;;;;;;;26.33;11.33;;;;;;;3.41;100.00;98247.59;12224211;19;20011;-79
2023/03/07 05:57:33;;;;;;;27.63;11.88;;;;;;;3.48;100.00;98258.34;12205448;19;20006;-79
2023/03/07 06:01:35;;;;;;;30.63;11.90;;;;;;;3.49;100.00;98247.22;12180848;19;20078;-78
2023/03/07 06:05:38;;;;;;;25.90;12.52;;;;;;;3.55;100.00;98248.97;12201634;19;20043;-79
2023/03/07 06:09:39;;;;;;;25.08;11.07;;;;;;;3.57;100.00;98240.53;12209838;19;20010;-78
2023/03/07 06:13:41;;;;;;;24.47;11.50;;;;;;;3.60;100.00;98242.81;12191474;19;20002;-78
2023/03/07 06:17:45;;;;;;;24.67;9.90;;;;;;;3.63;100.00;98242.31;12216037;19;20030;-78
2023/03/07 06:21:46;;;;;;;24.42;10.57;;;;;;;3.67;100.00;98243.47;12211210;19;20065;-79
2023/03/07 06:25:48;;;;;;;25.63;10.90;;;;;;;3.75;100.00;98234.06;12194346;19;20006;-80
2023/03/07 06:29:50;;;;;;;26.65;10.55;;;;;;;3.71;100.00;98239.19;12213641;19;20019;-80
2023/03/07 06:33:52;;;;;;;23.25;11.13;;;;;;;3.81;100.00;98239.38;12218083;19;20105;-80
2023/03/07 06:37:57;;;;;;;18.90;10.25;;;;;;;3.84;100.00;98241.63;12241513;19;20010;-79
2023/03/07 06:41:59;;;;;;;23.40;10.48;;;;;;;3.84;100.00;98247.06;12264398;19;20017;-80
2023/03/07 06:46:03;;;;;;;23.45;10.18;;;;;;;3.85;100.00;98248.72;12258239;19;20007;-80
2023/03/07 06:50:09;;;;;;;26.27;10.60;;;;;;;3.97;100.00;98250.56;12237600;19;20043;-79
2023/03/07 06:54:11;;;;;;;;;;;;;;;4.03;100.00;98253.13;12258858;19;20040;-81
2023/03/07 06:58:13;;;;;;;19.67;8.38;;;;;;;4.08;100.00;98253.22;12262769;19;19913;-80
2023/03/07 07:02:15;;;;;;;19.67;9.30;;;;;;;4.13;100.00;98260.66;12198111;19;20464;-80
2023/03/07 07:06:18;;;;;;;22.88;10.45;;;;;;;4.24;100.00;98262.47;12199099;19;20476;-79
2023/03/07 07:10:22;;;;;;;21.05;9.35;;;;;;;4.27;100.00;98261.16;12172108;19;20334;-79
2023/03/07 07:14:24;;;;;;;20.05;9.10;;;;;;;4.33;100.00;98260.19;12185737;19;20580;-79
2023/03/07 07:18:26;;;;;;;19.27;9.87;;;;;;;4.41;100.00;98262.50;12205226;19;20020;-80
2023/03/07 07:22:28;;;;;;;18.63;8.80;;;;;;;4.48;100.00;98263.16;12191397;19;20026;-80
2023/03/07 07:26:34;;;;;;;19.33;9.75;;;;;;;4.62;100.00;98255.47;12215521;19;20074;-81
2023/03/07 07:30:36;;;;;;;19.67;9.63;;;;;;;4.72;100.00;98254.78;12216215;19;20018;-80
2023/03/07 07:34:39;;;;;;;20.00;9.77;;;;;;;4.88;100.00;98259.41;12193737;19;20014;-80
2023/03/07 07:38:42;;;;;;;21.58;10.10;;;;;;;5.01;100.00;98261.75;12216775;19;20010;-79
2023/03/07 07:42:47;;;;;;;20.50;9.13;;;;;;;5.03;100.00;98264.25;12210401;19;20002;-79
2023/03/07 07:46:58;;;;;;;20.83;9.05;;;;;;;5.21;100.00;98261.22;12193725;19;20104;-79
2023/03/07 07:51:02;;;;;;;23.25;9.55;;;;;;;5.37;99.62;98261.41;12209300;19;20010;-78
2023/03/07 07:55:04;;;;;;;17.58;9.07;;;;;;;5.48;98.75;98263.19;12209518;19;20014;-79
2023/03/07 07:59:08;;;;;;;17.85;8.38;;;;;;;5.67;96.48;98253.56;12186379;19;20014;-79
2023/03/07 08:03:16;;;;;;;18.77;9.18;;;;;;;5.93;95.33;98251.16;12205435;19;20027;-79
2023/03/07 08:07:17;;;;;;;21.63;8.50;;;;;;;5.99;92.92;98255.59;12185430;19;20009;-80
2023/03/07 08:11:20;;;;;;;19.45;9.13;;;;;;;6.03;92.21;98242.22;12206233;19;20035;-80
2023/03/07 08:15:21;;;;;;;15.00;7.45;;;;;;;6.02;90.75;98243.31;12203734;19;20015;-81
2023/03/07 08:19:24;;;;;;;18.13;8.67;;;;;;;6.00;89.80;98240.00;12186075;19;20034;-78
2023/03/07 08:23:26;;;;;;;15.60;7.90;;;;;;;5.99;88.38;98230.16;12199438;19;20271;-79
2023/03/07 08:27:30;;;;;;;16.88;8.27;;;;;;;6.26;88.58;98230.13;12200980;19;20021;-79
2023/03/07 08:31:32;;;;;;;14.50;7.63;;;;;;;6.29;87.13;98233.16;12183695;19;20010;-80
2023/03/07 08:35:34;;;;;;;14.98;7.50;;;;;;;6.30;86.18;98244.94;12206328;19;20009;-78
2023/03/07 08:39:40;;;;;;;15.85;7.53;;;;;;;6.47;84.94;98225.66;12245006;19;20494;-82
2023/03/07 08:43:41;;;;;;;14.63;7.68;;;;;;;6.63;83.56;98232.88;12212993;19;20430;-79
2023/03/07 08:47:44;;;;;;;21.17;8.18;;;;;;;6.77;83.02;98223.13;12207188;19;20010;-80
2023/03/07 08:51:47;;;;;;;17.60;8.25;;;;;;;6.89;83.03;98222.09;12210076;19;20035;-79
2023/03/07 08:55:49;;;;;;;15.02;7.43;;;;;;;6.90;81.65;98219.13;12185358;19;20010;-79
2023/03/07 08:59:51;;;;;;;12.60;6.83;;;;;;;7.00;82.31;98227.38;12203887;19;20010;-80
2023/03/07 09:03:53;;;;;;;15.70;8.65;;;;;;;6.98;80.81;98221.34;12202253;19;20003;-81
2023/03/07 09:07:57;;;;;;;15.87;8.07;;;;;;;6.91;79.10;98219.94;12185092;19;20027;-80
2023/03/07 09:11:58;;;;;;;16.25;7.07;;;;;;;7.21;79.12;98227.50;12202187;19;20011;-81
2023/03/07 09:16:03;;;;;;;14.77;7.05;;;;;;;7.53;75.03;98221.88;12205954;19;20015;-79
2023/03/07 09:20:06;;;;;;;13.27;6.60;;;;;;;7.75;74.09;98221.66;12183029;19;20892;-78
2023/03/07 09:24:08;;;;;;;12.35;6.40;;;;;;;7.54;70.44;98213.38;12199428;19;20102;-79
2023/03/07 09:28:11;;;;;;;12.07;6.32;;;;;;;7.65;72.76;98214.22;12205844;19;20019;-82
2023/03/07 09:32:12;;;;;;;13.23;6.65;;;;;;;7.82;71.46;98204.94;12185545;19;20011;-79
2023/03/07 09:36:16;;;;;;;12.63;6.37;;;;;;;7.94;69.55;98197.28;12203831;19;20086;-78
2023/03/07 09:40:23;;;;;;;12.13;6.35;;;;;;;8.01;68.58;98195.09;12192314;19;20895;-78
2023/03/07 09:45:26;;;;;;;11.18;5.50;;;;;;;7.67;67.06;98197.50;12223035;19;20333;-78
2023/03/07 09:49:45;;;;;;;11.00;5.90;;;;;;;7.94;68.16;98189.06;12248693;19;20051;-82
2023/03/07 09:54:00;;;;;;;10.70;5.47;;;;;;;8.23;66.87;98179.19;12266024;19;20007;-81
2023/03/07 09:58:08;;;;;;;11.25;6.35;;;;;;;8.35;64.68;98178.09;12228378;19;20041;-80
2023/03/07 10:02:50;;;;;;;11.07;5.65;;;;;;;8.44;64.47;98179.22;12203280;19;20062;-83
2023/03/07 10:06:56;;;;;;;11.60;5.55;;;;;;;8.52;61.17;98186.09;12221752;19;20010;-81
2023/03/07 10:11:02;;;;;;;11.82;5.68;;;;;;;8.56;61.65;98182.50;12194873;19;20483;-80
2023/03/07 10:15:30;;;;;;;10.93;5.18;;;;;;;8.38;59.25;98183.03;12215173;19;20027;-79
2023/03/07 10:19:45;;;;;;;8.68;4.43;;;;;;;8.36;60.21;98168.78;12201920;19;20270;-80
2023/03/07 10:24:10;;;;;;;11.27;4.88;;;;;;;8.46;59.21;98182.53;12212675;19;20071;-77
2023/03/07 10:28:21;;;;;;;9.48;5.20;;;;;;;8.39;56.94;98177.31;12210233;19;20006;-82
2023/03/07 10:32:24;;;;;;;9.60;5.18;;;;;;;8.44;57.81;98168.25;12189202;19;20023;-80
2023/03/07 10:36:43;;;;;;;8.98;4.45;;;;;;;8.43;56.60;98161.13;12211575;19;20006;-81
2023/03/07 10:41:00;;;;;;;12.55;4.63;;;;;;;8.27;56.47;98163.03;12191049;19;20482;-81
2023/03/07 10:45:02;;;;;;;10.48;5.15;;;;;;;8.03;56.60;98162.75;12211288;19;20010;-82
2023/03/07 10:49:19;;;;;;;11.20;5.25;;;;;;;7.81;56.76;98159.44;12210512;19;21209;-80
2023/03/07 10:53:33;;;;;;;12.35;5.03;;;;;;;7.68;57.13;98150.63;12185598;19;20010;-82
2023/03/07 10:57:36;;;;;;;12.35;5.18;;;;;;;7.70;57.56;98159.44;12211051;19;20026;-79
2023/03/07 11:01:53;;;;;;;9.93;4.93;;;;;;;7.78;56.06;98159.97;12189799;19;20468;-78
2023/03/07 11:05:54;;;;;;;10.77;5.30;;;;;;;7.88;56.79;98158.06;12205583;19;20110;-80
2023/03/07 11:09:58;;;;;;;10.05;4.90;;;;;;;7.88;56.79;98149.84;12210225;19;20011;-79
2023/03/07 11:14:11;;;;;;;9.23;5.35;;;;;;;7.93;56.38;98140.78;12183840;19;20003;-78
2023/03/07 11:18:36;;;;;;;11.18;5.03;;;;;;;8.11;55.30;98136.69;12209714;19;20011;-80
2023/03/07 11:22:38;;;;;;;10.93;4.97;;;;;;;8.46;54.06;98130.38;12183350;19;20002;-80
2023/03/07 11:26:42;;;;;;;12.35;5.22;;;;;;;8.96;52.03;98114.84;12200859;19;20319;-79
2023/03/07 11:31:03;;;;;;;15.45;5.68;;;;;;;9.87;51.20;98115.41;12208526;19;20022;-79
2023/03/07 11:35:12;;;;;;;9.25;5.07;;;;;;;10.50;49.17;98098.13;12185400;19;20003;-79
2023/03/07 11:39:32;;;;;;;10.82;5.32;;;;;;;10.69;48.29;98090.75;12210318;19;20483;-81
2023/03/07 11:43:53;;;;;;;9.68;5.00;;;;;;;10.58;46.84;98080.13;12185948;19;20438;-79
2023/03/07 11:47:55;;;;;;;8.93;4.93;;;;;;;10.37;47.66;98063.81;12208580;19;20005;-83
2023/03/07 11:52:06;;;;;;;9.82;5.38;;;;;;;10.31;47.28;98075.19;12214289;19;20006;-80
2023/03/07 11:56:27;;;;;;;11.10;5.78;;;;;;;10.16;48.06;98089.88;12185217;19;20026;-81
2023/03/07 12:01:00;;;;;;;9.93;4.93;;;;;;;9.79;47.77;98078.34;12209809;19;20023;-80
2023/03/07 12:05:14;;;;;;;11.20;5.95;;;;;;;9.62;49.23;98090.88;12187225;19;20044;-80
2023/03/07 12:09:28;;;;;;;12.13;5.45;;;;;;;9.48;50.29;98080.50;12205592;19;20011;-81
2023/03/07 12:14:22;;;;;;;11.43;5.32;;;;;;;9.40;50.39;98078.38;12180822;19;20007;-80
2023/03/07 12:18:42;;;;;;;11.20;5.32;;;;;;;9.30;50.53;98064.66;12206030;19;20010;-79
2023/03/07 12:23:06;;;;;;;10.10;5.25;;;;;;;9.12;50.48;98072.44;12185021;19;20027;-82
2023/03/07 12:27:18;;;;;;;11.68;5.78;;;;;;;8.89;51.02;98073.13;12203884;19;20015;-81
2023/03/07 12:31:27;;;;;;;11.88;6.30;;;;;;;8.77;52.57;98070.69;12187614;19;20010;-79
2023/03/07 12:35:47;;;;;;;11.88;6.03;;;;;;;8.43;52.74;98071.34;12203627;19;21417;-79
2023/03/07 12:39:58;;;;;;;10.88;6.18;;;;;;;8.24;53.59;98059.31;12205972;19;20062;-79
2023/03/07 12:44:11;;;;;;;12.13;5.97;;;;;;;8.09;54.83;98070.28;12181509;19;20023;-79
2023/03/07 12:49:05;;;;;;;16.88;6.43;;;;;;;7.98;55.45;98050.28;12207473;19;20002;-81
2023/03/07 12:53:15;;;;;;;12.80;6.45;;;;;;;8.11;55.52;98044.22;12182238;19;21074;-81
2023/03/07 12:57:17;;;;;;;10.40;6.47;;;;;;;8.16;55.59;98040.66;12207276;19;20019;-80
2023/03/07 13:01:31;;;;;;;13.88;6.60;;;;;;;8.14;55.81;98043.66;12185704;19;20006;-81
2023/03/07 13:05:36;;;;;;;14.32;6.88;;;;;;;8.14;55.99;98038.19;12217648;19;21586;-82
2023/03/07 13:09:46;;;;;;;11.02;6.07;;;;;;;8.06;56.67;98032.44;12214444;19;19999;-82
2023/03/07 13:13:58;;;;;;;12.07;6.40;;;;;;;8.01;57.16;98033.28;12216208;19;19990;-83
2023/03/07 13:18:00;;;;;;;13.25;7.18;;;;;;;7.94;58.04;98022.59;12233974;19;21316;-80
2023/03/07 13:22:23;;;;;;;13.73;7.07;;;;;;;7.83;59.14;98031.09;12207644;19;20013;-81
2023/03/07 13:26:25;;;;;;;;;;;;;;;7.79;59.59;98021.75;12184759;19;20022;-81
2023/03/07 13:30:28;;;;;;;12.98;6.75;;;;;;;7.74;60.32;98028.09;12206039;19;19911;-82
2023/03/07 13:34:45;;;;;;;13.05;6.65;;;;;;;7.72;60.34;98020.13;12182076;19;21477;-79
2023/03/07 13:38:47;;;;;;;13.25;7.40;;;;;;;7.70;60.38;98016.84;12205936;19;20020;-82
2023/03/07 13:42:48;;;;;;;18.13;7.35;;;;;;;7.63;60.62;98023.69;12203036;19;19998;-80
2023/03/07 13:46:53;;;;;;;11.85;6.68;;;;;;;7.66;60.74;98029.44;12181506;19;20010;-80
2023/03/07 13:50:57;;;;;;;12.25;5.63;;;;;;;7.73;60.47;98016.31;12200416;19;20019;-80
2023/03/07 13:55:03;;;;;;;14.23;6.93;;;;;;;7.69;60.56;98028.09;12204656;19;20365;-80
2023/03/07 13:59:08;;;;;;;14.50;7.30;;;;;;;7.73;60.60;98032.75;12180610;19;20035;-79
2023/03/07 14:03:24;;;;;;;16.92;7.63;;;;;;;7.72;61.28;98025.63;12201228;19;20123;-80
2023/03/07 14:07:39;;;;;;;16.90;7.13;;;;;;;7.78;61.83;98025.63;12180894;19;20074;-79
2023/03/07 14:12:01;;;;;;;14.60;7.15;;;;;;;7.94;61.48;98029.97;12205295;19;20011;-80
2023/03/07 14:16:28;;;;;;;12.70;7.05;;;;;;;7.98;61.02;98031.91;12203849;19;20009;-82
2023/03/07 14:21:00;;;;;;;11.95;6.43;;;;;;;7.83;61.40;98037.41;12181635;19;20472;-80
2023/03/07 14:25:21;;;;;;;15.30;6.82;;;;;;;7.92;61.97;98037.69;12208487;19;20014;-81
2023/03/07 14:29:26;;;;;;;13.30;6.55;;;;;;;7.89;62.19;98035.47;12186063;19;20412;-79
2023/03/07 14:33:30;;;;;;;12.13;6.40;;;;;;;7.71;61.65;98045.09;12216125;19;20769;-79
2023/03/07 14:37:32;;;;;;;14.10;6.68;;;;;;;7.69;61.54;98047.28;12192726;19;20020;-79
2023/03/07 14:42:03;;;;;;;13.35;7.13;;;;;;;7.75;61.44;98041.50;12214311;19;20002;-79
2023/03/07 14:46:49;;;;;;;15.07;7.43;;;;;;;7.71;61.44;98037.69;12208141;19;20586;-80
2023/03/07 14:50:53;;;;;;;16.60;6.82;;;;;;;7.75;61.62;98044.25;12107517;19;2004638;-79
2023/03/07 14:55:02;;;;;;;16.63;7.45;;;;;;;7.64;60.95;98059.06;12213804;19;20006;-83
2023/03/07 14:59:06;;;;;;;13.20;6.72;;;;;;;7.64;61.11;98053.56;12193035;19;20026;-81
2023/03/07 15:03:19;;;;;;;9.43;5.78;;;;;;;7.51;62.15;98059.59;12218356;19;20010;-79
2023/03/07 15:07:21;;;;;;;12.47;6.23;;;;;;;7.38;62.62;98068.38;12199688;19;20124;-78
2023/03/07 15:11:35;;;;;;;9.95;5.72;;;;;;;7.33;63.42;98063.69;12226046;19;20006;-82
2023/03/07 15:16:02;;;;;;;11.47;5.80;;;;;;;7.41;64.42;98067.81;12216328;19;20006;-80
2023/03/07 15:20:29;;;;;;;11.73;4.95;;;;;;;7.36;66.00;98065.06;12209459;19;20272;-79
2023/03/07 15:24:42;;;;;;;9.38;4.93;;;;;;;7.42;67.24;98069.47;12272899;19;20002;-84
2023/03/07 15:28:43;;;;;;;9.80;5.20;;;;;;;7.33;68.77;98058.22;12251446;19;20010;-79
2023/03/07 15:32:46;;;;;;;9.38;4.75;;;;;;;7.24;70.24;98063.41;12224726;19;20002;-77
2023/03/07 15:36:48;;;;;;;10.25;5.22;;;;;;;7.30;70.00;98056.84;12228150;19;20044;-78
2023/03/07 15:40:50;;;;;;;11.10;5.75;;;;;;;7.29;71.11;98073.56;12217378;19;20603;-80
2023/03/07 15:44:55;;;;;;;10.60;5.13;;;;;;;7.19;72.39;98068.03;12243614;19;20106;-78
2023/03/07 15:49:05;;;;;;;11.30;5.75;;;;;;;7.20;72.43;98061.50;12247934;19;20044;-80
2023/03/07 15:53:24;;;;;;;9.65;5.07;;;;;;;6.98;74.33;98043.34;12222827;19;20028;-80
2023/03/07 15:57:33;;;;;;;11.90;5.75;;;;;;;7.10;73.68;98040.34;12233941;19;20029;-79
2023/03/07 16:01:34;;;;;;;12.05;5.68;;;;;;;7.05;74.20;98037.63;12184412;19;20428;-79
2023/03/07 16:05:37;;;;;;;12.03;5.50;;;;;;;6.95;74.54;98038.41;12205726;19;20006;-80
2023/03/07 16:09:39;;;;;;;11.77;5.00;;;;;;;6.99;74.76;98038.69;12208006;19;20345;-79
2023/03/07 16:13:42;;;;;;;10.85;5.30;;;;;;;6.93;75.32;98040.59;12181307;19;19998;-80
2023/03/07 16:17:50;;;;;;;11.63;5.50;;;;;;;6.98;74.76;98053.47;12211184;19;20010;-80
2023/03/07 16:21:52;;;;;;;12.05;5.45;;;;;;;6.89;75.45;98053.16;12204234;19;20015;-78
2023/03/07 16:25:54;;;;;;;12.37;5.60;;;;;;;6.81;76.18;98062.75;12179585;19;20034;-79
2023/03/07 16:29:57;;;;;;;11.23;5.28;;;;;;;6.70;77.34;98047.38;12203536;19;20010;-80
2023/03/07 16:33:59;;;;;;;14.52;6.35;;;;;;;6.70;77.00;98062.97;12198851;19;20013;-79
2023/03/07 16:38:01;;;;;;;13.93;6.50;;;;;;;6.66;77.46;98061.84;12177415;19;20006;-78
2023/03/07 16:42:03;;;;;;;13.68;6.88;;;;;;;6.57;77.94;98058.78;12202527;19;20263;-80
2023/03/07 16:46:10;;;;;;;18.63;6.90;;;;;;;6.52;78.32;98053.31;12194575;19;20002;-80
2023/03/07 16:50:14;;;;;;;15.02;7.35;;;;;;;6.48;78.13;98054.91;12177292;19;20681;-78
2023/03/07 16:54:16;;;;;;;15.77;6.80;;;;;;;6.43;78.77;98060.38;12195026;19;20015;-79
2023/03/07 16:58:28;;;;;;;12.30;5.78;;;;;;;6.35;78.85;98067.16;12179880;19;20034;-78
2023/03/07 17:02:30;;;;;;;14.98;6.35;;;;;;;6.37;78.43;98067.72;12201344;19;20011;-80
2023/03/07 17:06:31;;;;;;;11.37;6.00;;;;;;;6.34;78.52;98076.47;12200318;19;20392;-79
2023/03/07 17:10:39;;;;;;;11.77;5.72;;;;;;;6.36;78.12;98069.63;12179485;19;20007;-79
2023/03/07 17:14:44;;;;;;;11.70;5.65;;;;;;;6.37;77.68;98070.47;12198524;19;20007;-77
2023/03/07 17:18:46;;;;;;;11.95;6.03;;;;;;;6.40;77.23;98072.66;12205491;19;20010;-79
2023/03/07 17:22:50;;;;;;;14.43;6.28;;;;;;;6.44;76.60;98071.03;12177332;19;20003;-79
2023/03/07 17:26:53;;;;;;;12.15;5.88;;;;;;;6.46;76.19;98081.72;12197417;19;20072;-79
2023/03/07 17:30:55;;;;;;;10.52;5.53;;;;;;;6.45;76.15;98077.34;12200760;19;20487;-79
2023/03/07 17:34:58;;;;;;;15.23;6.38;;;;;;;6.45;76.09;98088.28;12165802;19;20080;-78
2023/03/07 17:39:00;;;;;;;12.57;5.88;;;;;;;6.48;75.57;98087.75;12197517;19;20591;-80
2023/03/07 17:43:03;;;;;;;10.38;5.93;;;;;;;6.45;75.20;98089.09;12192938;19;20002;-79
2023/03/07 17:47:07;;;;;;;11.30;5.93;;;;;;;6.50;74.93;98093.78;12185810;19;20015;-80
2023/03/07 17:51:10;;;;;;;15.63;5.93;;;;;;;6.48;74.61;98093.22;12221645;19;20010;-80
2023/03/07 17:55:14;;;;;;;11.17;5.97;;;;;;;6.51;74.42;98089.94;12194637;19;20010;-79
2023/03/07 17:59:16;;;;;;;13.00;5.90;;;;;;;6.48;74.07;98082.28;12177404;19;20010;-79
2023/03/07 18:03:18;;;;;;;11.90;5.15;;;;;;;6.48;73.84;98095.97;12203506;19;20007;-78
2023/03/07 18:07:20;;;;;;;14.48;6.30;;;;;;;6.45;73.74;98099.22;12182133;19;20015;-77
2023/03/07 18:11:23;;;;;;;12.23;5.95;;;;;;;6.44;73.49;98100.31;12205767;19;20007;-79
2023/03/07 18:15:26;;;;;;;14.57;5.63;;;;;;;6.45;73.22;98101.97;12202586;19;20010;-78
2023/03/07 18:19:28;;;;;;;12.65;6.00;;;;;;;6.47;72.98;98108.00;12197742;19;20006;-79
2023/03/07 18:23:31;;;;;;;10.88;5.90;;;;;;;6.46;72.68;98109.09;12210534;19;20007;-80
2023/03/07 18:27:32;;;;;;;10.80;5.93;;;;;;;6.51;72.02;98109.09;12211250;19;20011;-79
2023/03/07 18:31:35;;;;;;;11.23;5.57;;;;;;;6.56;71.94;98100.94;12189864;19;20012;-81
2023/03/07 18:35:37;;;;;;;13.25;6.15;;;;;;;6.55;71.60;98116.53;12204711;19;20014;-80
2023/03/07 18:39:38;;;;;;;9.10;4.80;;;;;;;6.59;71.55;98111.34;12210987;19;20027;-78
2023/03/07 18:43:42;;;;;;;11.18;5.80;;;;;;;6.60;71.05;98115.72;12187159;19;20003;-80
2023/03/07 18:47:43;;;;;;;11.13;5.53;;;;;;;6.62;70.79;98110.81;12209742;19;20038;-80
2023/03/07 18:51:47;;;;;;;11.50;5.10;;;;;;;6.65;69.94;98107.53;12214308;19;20023;-78
2023/03/07 18:55:48;;;;;;;11.55;5.47;;;;;;;6.64;70.25;98111.38;12191363;19;20010;-80
2023/03/07 18:59:50;;;;;;;10.55;5.03;;;;;;;6.67;69.84;98113.59;12215101;19;20010;-77
2023/03/07 19:03:54;;;;;;;11.65;5.38;;;;;;;6.69;69.72;98113.31;12203776;19;20010;-79
2023/03/07 19:07:56;;;;;;;12.27;5.75;;;;;;;6.74;69.42;98121.56;12181853;19;20082;-79
2023/03/07 19:11:58;;;;;;;11.05;5.65;;;;;;;6.73;69.12;98126.22;12201990;19;20042;-80
2023/03/07 19:16:10;;;;;;;11.43;5.47;;;;;;;6.73;69.25;98134.41;12206817;19;20007;-79
2023/03/07 19:20:13;;;;;;;10.45;5.28;;;;;;;6.76;68.82;98142.09;12184383;19;20117;-77
2023/03/07 19:24:14;;;;;;;11.83;5.93;;;;;;;6.74;69.33;98151.66;12204461;19;20042;-79
2023/03/07 19:28:16;;;;;;;11.70;5.28;;;;;;;6.69;69.00;98148.88;12183114;19;20007;-79
2023/03/07 19:32:19;;;;;;;13.48;6.22;;;;;;;6.69;69.45;98152.44;12205709;19;20015;-80
2023/03/07 19:36:23;;;;;;;13.88;6.00;;;;;;;6.71;69.35;98143.97;12201617;19;20047;-79
2023/03/07 19:40:27;;;;;;;13.10;6.13;;;;;;;6.66;69.47;98143.94;12186194;19;20131;-79
2023/03/07 19:44:29;;;;;;;13.98;6.40;;;;;;;6.68;69.40;98130.81;12201501;19;20027;-78
2023/03/07 19:48:31;;;;;;;12.00;5.72;;;;;;;6.66;69.31;98136.56;12206353;19;20014;-78
2023/03/07 19:52:33;;;;;;;14.10;6.47;;;;;;;6.71;69.52;98147.53;12185315;19;20460;-79
2023/03/07 19:56:37;;;;;;;10.23;5.33;;;;;;;6.67;69.16;98156.56;12206650;19;20357;-79
2023/03/07 20:00:45;;;;;;;12.32;6.03;;;;;;;6.67;69.08;98168.34;12207650;19;20668;-82
2023/03/07 20:04:47;;;;;;;10.68;5.47;;;;;;;6.66;68.83;98154.91;12181004;19;20086;-84
2023/03/07 20:08:51;;;;;;;13.60;5.80;;;;;;;6.62;68.52;98160.91;12213915;19;20007;-79